Terminal Aerodrome Forecast
Issued by NWS

Home | Current Version | Previous Version | Text Only | Print | Product List | Glossary On
Versions: 1 2 3 4 5 6 7 8 9 10 11 12 13 14 15 16
000
FTAK31 PAFA 232003 AAA
TAFAQT
TAF AMD
PAQT 232003Z 2320/2418 05013KT P6SM BKN011 OVC018
     FM240300 06011KT P6SM OVC020
     FM240800 06012KT 6SM BR OVC007=

USA.gov is the U.S. government's official web portal to all federal, state and local government web resources and services.